sensor_id;sensor_type;location;lat;lon;timestamp;pressure;altitude;pressure_sealevel;temperature;humidity
15880;BME280;61999;51.514;14.614;2023-04-28T00:02:16;100376.53;;;2.46;38.47
15880;BME280;61999;51.514;14.614;2023-04-28T00:04:44;100369.63;;;2.45;38.86
15880;BME280;61999;51.514;14.614;2023-04-28T00:07:13;100374.91;;;2.43;38.87
15880;BME280;61999;51.514;14.614;2023-04-28T00:09:42;100369.72;;;2.43;39.06
15880;BME280;61999;51.514;14.614;2023-04-28T00:12:10;100365.34;;;2.44;38.85
15880;BME280;61999;51.514;14.614;2023-04-28T00:14:38;100367.94;;;2.44;38.84
15880;BME280;61999;51.514;14.614;2023-04-28T00:17:06;100364.56;;;2.42;39.07
15880;BME280;61999;51.514;14.614;2023-04-28T00:19:35;100368.06;;;2.40;38.85
15880;BME280;61999;51.514;14.614;2023-04-28T00:22:04;100360.44;;;2.36;39.14
15880;BME280;61999;51.514;14.614;2023-04-28T00:24:32;100357.91;;;2.34;38.94
15880;BME280;61999;51.514;14.614;2023-04-28T00:27:03;100353.63;;;2.33;38.76
15880;BME280;61999;51.514;14.614;2023-04-28T00:29:31;100351.13;;;2.30;38.80
15880;BME280;61999;51.514;14.614;2023-04-28T00:31:59;100346.91;;;2.28;38.74
15880;BME280;61999;51.514;14.614;2023-04-28T00:34:27;100341.84;;;2.25;38.88
15880;BME280;61999;51.514;14.614;2023-04-28T00:36:56;100347.09;;;2.23;38.79
15880;BME280;61999;51.514;14.614;2023-04-28T00:39:24;100334.22;;;2.20;39.23
15880;BME280;61999;51.514;14.614;2023-04-28T00:41:53;100335.13;;;2.19;38.90
15880;BME280;61999;51.514;14.614;2023-04-28T00:44:22;100348.22;;;2.16;39.47
15880;BME280;61999;51.514;14.614;2023-04-28T00:46:50;100341.59;;;2.09;40.11
15880;BME280;61999;51.514;14.614;2023-04-28T00:49:18;100341.59;;;2.09;39.24
15880;BME280;61999;51.514;14.614;2023-04-28T00:51:46;100345.09;;;2.08;39.51
15880;BME280;61999;51.514;14.614;2023-04-28T00:54:15;100333.00;;;2.07;39.38
15880;BME280;61999;51.514;14.614;2023-04-28T00:56:43;100333.97;;;2.04;39.44
15880;BME280;61999;51.514;14.614;2023-04-28T00:59:11;100320.19;;;2.02;39.50
15880;BME280;61999;51.514;14.614;2023-04-28T01:01:41;100332.31;;;2.02;39.43
15880;BME280;61999;51.514;14.614;2023-04-28T01:04:09;100331.56;;;2.00;39.25
15880;BME280;61999;51.514;14.614;2023-04-28T01:06:37;100334.19;;;1.98;39.53
15880;BME280;61999;51.514;14.614;2023-04-28T01:09:05;100330.84;;;1.96;39.50
15880;BME280;61999;51.514;14.614;2023-04-28T01:11:33;100318.78;;;1.93;39.38
15880;BME280;61999;51.514;14.614;2023-04-28T01:14:02;100327.38;;;1.95;39.84
15880;BME280;61999;51.514;14.614;2023-04-28T01:16:30;100324.72;;;1.97;39.38
15880;BME280;61999;51.514;14.614;2023-04-28T01:19:00;100326.34;;;2.00;39.54
15880;BME280;61999;51.514;14.614;2023-04-28T01:21:30;100309.84;;;2.01;39.46
15880;BME280;61999;51.514;14.614;2023-04-28T01:24:00;100308.91;;;2.02;39.67
15880;BME280;61999;51.514;14.614;2023-04-28T01:26:28;100308.06;;;2.01;39.88
15880;BME280;61999;51.514;14.614;2023-04-28T01:28:56;100303.78;;;2.00;39.48
15880;BME280;61999;51.514;14.614;2023-04-28T01:31:24;100307.22;;;2.01;39.97
15880;BME280;61999;51.514;14.614;2023-04-28T01:33:52;100299.56;;;1.98;39.89
15880;BME280;61999;51.514;14.614;2023-04-28T01:36:20;100299.56;;;1.98;39.59
15880;BME280;61999;51.514;14.614;2023-04-28T01:38:49;100298.75;;;1.95;39.62
15880;BME280;61999;51.514;14.614;2023-04-28T01:41:19;100297.22;;;1.91;39.91
15880;BME280;61999;51.514;14.614;2023-04-28T01:43:48;100292.34;;;1.82;40.41
15880;BME280;61999;51.514;14.614;2023-04-28T01:46:16;100295.19;;;1.76;41.20
15880;BME280;61999;51.514;14.614;2023-04-28T01:48:44;100300.44;;;1.75;40.56
15880;BME280;61999;51.514;14.614;2023-04-28T01:51:13;100294.38;;;1.74;40.36
15880;BME280;61999;51.514;14.614;2023-04-28T01:53:41;100291.06;;;1.70;40.58
15880;BME280;61999;51.514;14.614;2023-04-28T01:56:09;100289.44;;;1.68;40.43
15880;BME280;61999;51.514;14.614;2023-04-28T01:58:38;100288.56;;;1.67;40.69
15880;BME280;61999;51.514;14.614;2023-04-28T02:01:06;100292.16;;;1.65;40.50
15880;BME280;61999;51.514;14.614;2023-04-28T02:03:34;100291.34;;;1.63;40.61
15880;BME280;61999;51.514;14.614;2023-04-28T02:06:02;100294.88;;;1.62;40.72
15880;BME280;61999;51.514;14.614;2023-04-28T02:08:30;100288.81;;;1.61;40.93
15880;BME280;61999;51.514;14.614;2023-04-28T02:10:58;100283.59;;;1.61;40.97
15880;BME280;61999;51.514;14.614;2023-04-28T02:13:27;100285.44;;;1.59;41.62
15880;BME280;61999;51.514;14.614;2023-04-28T02:15:59;100276.72;;;1.60;41.28
15880;BME280;61999;51.514;14.614;2023-04-28T02:18:28;100282.03;;;1.57;41.34
15880;BME280;61999;51.514;14.614;2023-04-28T02:20:56;100277.56;;;1.61;41.35
15880;BME280;61999;51.514;14.614;2023-04-28T02:23:24;100282.88;;;1.58;41.00
15880;BME280;61999;51.514;14.614;2023-04-28T02:26:00;100279.38;;;1.59;40.88
15880;BME280;61999;51.514;14.614;2023-04-28T02:28:29;100291.59;;;1.57;40.87
15880;BME280;61999;51.514;14.614;2023-04-28T02:31:05;100289.88;;;1.56;41.17
15880;BME280;61999;51.514;14.614;2023-04-28T02:33:34;100277.81;;;1.55;40.83
15880;BME280;61999;51.514;14.614;2023-04-28T02:36:03;100276.13;;;1.54;41.02
15880;BME280;61999;51.514;14.614;2023-04-28T02:38:31;100276.25;;;1.50;41.41
15880;BME280;61999;51.514;14.614;2023-04-28T02:41:00;100272.13;;;1.45;41.63
15880;BME280;61999;51.514;14.614;2023-04-28T02:43:31;100282.41;;;1.48;41.46
15880;BME280;61999;51.514;14.614;2023-04-28T02:46:03;100276.44;;;1.44;41.49
15880;BME280;61999;51.514;14.614;2023-04-28T02:48:32;100272.97;;;1.45;41.51
15880;BME280;61999;51.514;14.614;2023-04-28T02:51:02;100266.13;;;1.43;41.49
15880;BME280;61999;51.514;14.614;2023-04-28T02:53:30;100267.94;;;1.41;41.79
15880;BME280;61999;51.514;14.614;2023-04-28T02:55:58;100262.00;;;1.37;42.21
15880;BME280;61999;51.514;14.614;2023-04-28T02:58:27;100256.13;;;1.32;42.13
15880;BME280;61999;51.514;14.614;2023-04-28T03:00:55;100263.09;;;1.32;42.01
15880;BME280;61999;51.514;14.614;2023-04-28T03:03:25;100250.94;;;1.32;41.85
15880;BME280;61999;51.514;14.614;2023-04-28T03:05:53;100254.56;;;1.28;42.60
15880;BME280;61999;51.514;14.614;2023-04-28T03:08:22;100253.88;;;1.23;42.11
15880;BME280;61999;51.514;14.614;2023-04-28T03:10:50;100244.41;;;1.22;42.11
15880;BME280;61999;51.514;14.614;2023-04-28T03:13:18;100246.13;;;1.21;42.25
15880;BME280;61999;51.514;14.614;2023-04-28T03:15:46;100240.19;;;1.19;42.32
15880;BME280;61999;51.514;14.614;2023-04-28T03:18:14;100235.03;;;1.18;42.09
15880;BME280;61999;51.514;14.614;2023-04-28T03:20:43;100238.66;;;1.14;42.28
15880;BME280;61999;51.514;14.614;2023-04-28T03:23:11;100236.06;;;1.14;42.83
15880;BME280;61999;51.514;14.614;2023-04-28T03:25:39;100225.78;;;1.11;42.28
15880;BME280;61999;51.514;14.614;2023-04-28T03:28:07;100226.69;;;1.10;42.74
15880;BME280;61999;51.514;14.614;2023-04-28T03:30:36;100220.72;;;1.08;42.82
15880;BME280;61999;51.514;14.614;2023-04-28T03:33:04;100222.63;;;1.02;43.25
15880;BME280;61999;51.514;14.614;2023-04-28T03:35:33;100217.31;;;1.05;43.00
15880;BME280;61999;51.514;14.614;2023-04-28T03:38:02;100224.38;;;1.02;43.21
15880;BME280;61999;51.514;14.614;2023-04-28T03:40:30;100222.84;;;0.96;43.32
15880;BME280;61999;51.514;14.614;2023-04-28T03:42:58;100225.38;;;0.98;43.03
15880;BME280;61999;51.514;14.614;2023-04-28T03:45:27;100222.84;;;0.96;42.93
15880;BME280;61999;51.514;14.614;2023-04-28T03:47:56;100227.25;;;0.94;42.89
15880;BME280;61999;51.514;14.614;2023-04-28T03:50:24;100216.06;;;0.92;43.42
15880;BME280;61999;51.514;14.614;2023-04-28T03:52:52;100216.88;;;0.94;42.95
15880;BME280;61999;51.514;14.614;2023-04-28T03:55:21;100218.75;;;0.91;43.18
15880;BME280;61999;51.514;14.614;2023-04-28T03:57:49;100224.78;;;0.91;43.49
15880;BME280;61999;51.514;14.614;2023-04-28T04:00:18;100217.09;;;0.88;43.64
15880;BME280;61999;51.514;14.614;2023-04-28T04:02:46;100217.97;;;0.87;43.84
15880;BME280;61999;51.514;14.614;2023-04-28T04:05:14;100209.53;;;0.82;44.61
15880;BME280;61999;51.514;14.614;2023-04-28T04:07:42;100206.03;;;0.83;44.48
15880;BME280;61999;51.514;14.614;2023-04-28T04:10:10;100210.25;;;0.86;44.61
15880;BME280;61999;51.514;14.614;2023-04-28T04:12:39;100195.66;;;0.83;44.31
15880;BME280;61999;51.514;14.614;2023-04-28T04:15:08;100209.44;;;0.85;44.90
15880;BME280;61999;51.514;14.614;2023-04-28T04:17:37;100198.94;;;0.88;44.36
15880;BME280;61999;51.514;14.614;2023-04-28T04:20:07;100203.22;;;0.89;44.45
15880;BME280;61999;51.514;14.614;2023-04-28T04:22:35;100199.78;;;0.89;45.28
15880;BME280;61999;51.514;14.614;2023-04-28T04:25:03;100203.09;;;0.92;44.38
15880;BME280;61999;51.514;14.614;2023-04-28T04:27:31;100198.09;;;0.88;45.51
15880;BME280;61999;51.514;14.614;2023-04-28T04:30:01;100193.16;;;0.80;46.05
15880;BME280;61999;51.514;14.614;2023-04-28T04:32:29;100195.53;;;0.86;45.66
15880;BME280;61999;51.514;14.614;2023-04-28T04:34:57;100192.94;;;0.86;45.43
15880;BME280;61999;51.514;14.614;2023-04-28T04:37:25;100191.88;;;0.92;45.81
15880;BME280;61999;51.514;14.614;2023-04-28T04:39:53;100192.66;;;0.94;45.87
15880;BME280;61999;51.514;14.614;2023-04-28T04:42:21;100193.34;;;0.99;45.46
15880;BME280;61999;51.514;14.614;2023-04-28T04:44:50;100193.50;;;0.94;45.53
15880;BME280;61999;51.514;14.614;2023-04-28T04:47:20;100191.47;;;1.02;44.93
15880;BME280;61999;51.514;14.614;2023-04-28T04:49:48;100189.72;;;1.03;45.34
15880;BME280;61999;51.514;14.614;2023-04-28T04:52:16;100189.13;;;0.96;45.62
15880;BME280;61999;51.514;14.614;2023-04-28T04:54:44;100189.72;;;1.03;45.16
15880;BME280;61999;51.514;14.614;2023-04-28T04:57:13;100181.03;;;1.04;45.78
15880;BME280;61999;51.514;14.614;2023-04-28T04:59:41;100184.56;;;1.01;45.58
15880;BME280;61999;51.514;14.614;2023-04-28T05:02:09;100182.66;;;1.07;45.31
15880;BME280;61999;51.514;14.614;2023-04-28T05:04:38;100175.06;;;1.02;45.65
15880;BME280;61999;51.514;14.614;2023-04-28T05:07:06;100175.91;;;1.02;45.66
15880;BME280;61999;51.514;14.614;2023-04-28T05:09:34;100175.19;;;0.99;45.98
15880;BME280;61999;51.514;14.614;2023-04-28T05:12:02;100168.03;;;1.04;45.79
15880;BME280;61999;51.514;14.614;2023-04-28T05:14:30;100169.63;;;1.08;45.71
15880;BME280;61999;51.514;14.614;2023-04-28T05:16:58;100171.38;;;1.08;46.36
15880;BME280;61999;51.514;14.614;2023-04-28T05:19:26;100166.84;;;1.13;45.86
15880;BME280;61999;51.514;14.614;2023-04-28T05:21:55;100154.41;;;1.21;45.85
15880;BME280;61999;51.514;14.614;2023-04-28T05:24:23;100158.06;;;1.17;46.05
15880;BME280;61999;51.514;14.614;2023-04-28T05:26:52;100150.84;;;1.23;46.10
15880;BME280;61999;51.514;14.614;2023-04-28T05:29:20;100152.19;;;1.34;46.12
15880;BME280;61999;51.514;14.614;2023-04-28T05:31:48;100158.84;;;1.41;46.24
15880;BME280;61999;51.514;14.614;2023-04-28T05:34:16;100152.97;;;1.36;46.38
15880;BME280;61999;51.514;14.614;2023-04-28T05:36:44;100151.41;;;1.54;46.03
15880;BME280;61999;51.514;14.614;2023-04-28T05:39:13;100146.00;;;1.58;45.91
15880;BME280;61999;51.514;14.614;2023-04-28T05:41:41;100144.75;;;1.68;45.94
15880;BME280;61999;51.514;14.614;2023-04-28T05:44:09;100146.25;;;1.74;46.20
15880;BME280;61999;51.514;14.614;2023-04-28T05:46:37;100153.66;;;1.83;45.80
15880;BME280;61999;51.514;14.614;2023-04-28T05:49:05;100144.00;;;1.87;45.67
15880;BME280;61999;51.514;14.614;2023-04-28T05:51:33;100146.94;;;2.00;45.54
15880;BME280;61999;51.514;14.614;2023-04-28T05:54:01;100141.63;;;2.03;45.54
15880;BME280;61999;51.514;14.614;2023-04-28T05:56:31;100146.84;;;2.22;45.31
15880;BME280;61999;51.514;14.614;2023-04-28T05:58:59;100143.09;;;2.29;45.03
15880;BME280;61999;51.514;14.614;2023-04-28T06:01:29;100138.31;;;2.38;44.61
15880;BME280;61999;51.514;14.614;2023-04-28T06:03:58;100129.41;;;2.44;44.71
15880;BME280;61999;51.514;14.614;2023-04-28T06:06:26;100131.53;;;2.55;44.43
15880;BME280;61999;51.514;14.614;2023-04-28T06:08:54;100136.31;;;2.64;44.32
15880;BME280;61999;51.514;14.614;2023-04-28T06:11:22;100124.25;;;2.63;44.52
15880;BME280;61999;51.514;14.614;2023-04-28T06:13:51;100127.84;;;2.79;44.07
15880;BME280;61999;51.514;14.614;2023-04-28T06:16:19;100128.59;;;2.81;44.45
15880;BME280;61999;51.514;14.614;2023-04-28T06:18:49;100123.69;;;2.94;43.59
15880;BME280;61999;51.514;14.614;2023-04-28T06:21:17;100122.25;;;3.06;44.04
15880;BME280;61999;51.514;14.614;2023-04-28T06:23:46;100115.22;;;3.08;44.27
15880;BME280;61999;51.514;14.614;2023-04-28T06:26:14;100112.13;;;3.00;44.92
15880;BME280;61999;51.514;14.614;2023-04-28T06:28:43;100106.50;;;3.09;44.04
15880;BME280;61999;51.514;14.614;2023-04-28T06:31:13;100107.59;;;3.22;43.99
15880;BME280;61999;51.514;14.614;2023-04-28T06:33:41;100106.63;;;3.25;43.93
15880;BME280;61999;51.514;14.614;2023-04-28T06:36:09;100098.84;;;3.42;43.74
15880;BME280;61999;51.514;14.614;2023-04-28T06:38:39;100102.63;;;3.54;43.67
15880;BME280;61999;51.514;14.614;2023-04-28T06:41:09;100100.78;;;3.73;43.80
15880;BME280;61999;51.514;14.614;2023-04-28T06:43:37;100101.53;;;3.75;43.62
15880;BME280;61999;51.514;14.614;2023-04-28T06:46:05;100095.84;;;3.85;43.15
15880;BME280;61999;51.514;14.614;2023-04-28T06:48:35;100100.16;;;4.03;42.87
15880;BME280;61999;51.514;14.614;2023-04-28T06:51:03;100091.13;;;4.26;42.24
15880;BME280;61999;51.514;14.614;2023-04-28T06:53:31;100093.00;;;4.40;42.77
15880;BME280;61999;51.514;14.614;2023-04-28T06:55:59;100094.53;;;4.44;41.83
15880;BME280;61999;51.514;14.614;2023-04-28T06:58:28;100096.59;;;4.55;41.21
15880;BME280;61999;51.514;14.614;2023-04-28T07:00:56;100086.03;;;4.74;41.30
15880;BME280;61999;51.514;14.614;2023-04-28T07:03:25;100085.69;;;4.80;41.03
15880;BME280;61999;51.514;14.614;2023-04-28T07:05:54;100080.88;;;4.88;41.06
15880;BME280;61999;51.514;14.614;2023-04-28T07:08:22;100083.47;;;5.04;40.59
15880;BME280;61999;51.514;14.614;2023-04-28T07:10:50;100079.16;;;5.19;39.92
15880;BME280;61999;51.514;14.614;2023-04-28T07:13:18;100074.56;;;5.38;39.82
15880;BME280;61999;51.514;14.614;2023-04-28T07:15:46;100063.94;;;5.41;38.77
15880;BME280;61999;51.514;14.614;2023-04-28T07:18:14;100074.31;;;5.43;38.08
15880;BME280;61999;51.514;14.614;2023-04-28T07:20:42;100069.84;;;5.59;37.46
15880;BME280;61999;51.514;14.614;2023-04-28T07:23:11;100064.78;;;5.72;37.42
15880;BME280;61999;51.514;14.614;2023-04-28T07:25:39;100063.88;;;5.87;37.55
15880;BME280;61999;51.514;14.614;2023-04-28T07:28:08;100051.56;;;5.89;37.60
15880;BME280;61999;51.514;14.614;2023-04-28T07:30:36;100056.78;;;6.04;37.89
15880;BME280;61999;51.514;14.614;2023-04-28T07:33:04;100037.16;;;6.11;37.09
15880;BME280;61999;51.514;14.614;2023-04-28T07:35:32;100047.47;;;6.28;37.30
15880;BME280;61999;51.514;14.614;2023-04-28T07:38:01;100055.84;;;6.33;36.63
15880;BME280;61999;51.514;14.614;2023-04-28T07:40:31;100047.69;;;6.52;36.77
15880;BME280;61999;51.514;14.614;2023-04-28T07:42:58;100042.16;;;6.71;36.10
15880;BME280;61999;51.514;14.614;2023-04-28T07:45:26;100048.63;;;6.80;35.95
15880;BME280;61999;51.514;14.614;2023-04-28T07:47:54;100039.13;;;6.92;35.65
15880;BME280;61999;51.514;14.614;2023-04-28T07:50:23;100039.31;;;7.16;34.89
15880;BME280;61999;51.514;14.614;2023-04-28T07:52:51;100042.09;;;7.40;34.78
15880;BME280;61999;51.514;14.614;2023-04-28T07:55:19;100046.09;;;7.45;33.78
15880;BME280;61999;51.514;14.614;2023-04-28T07:57:48;100040.75;;;7.47;34.08
15880;BME280;61999;51.514;14.614;2023-04-28T08:00:17;100035.22;;;7.64;33.28
15880;BME280;61999;51.514;14.614;2023-04-28T08:02:45;100043.03;;;7.91;33.00
15880;BME280;61999;51.514;14.614;2023-04-28T08:05:13;100037.56;;;7.82;32.17
15880;BME280;61999;51.514;14.614;2023-04-28T08:07:41;100028.94;;;8.05;32.45
15880;BME280;61999;51.514;14.614;2023-04-28T08:10:10;100025.75;;;8.26;32.55
15880;BME280;61999;51.514;14.614;2023-04-28T08:12:38;100027.25;;;8.30;32.29
15880;BME280;61999;51.514;14.614;2023-04-28T08:15:10;100019.00;;;8.47;32.38
15880;BME280;61999;51.514;14.614;2023-04-28T08:17:38;100016.84;;;8.78;33.09
15880;BME280;61999;51.514;14.614;2023-04-28T08:20:07;100016.09;;;8.76;32.08
15880;BME280;61999;51.514;14.614;2023-04-28T08:22:35;100012.56;;;8.88;31.80
15880;BME280;61999;51.514;14.614;2023-04-28T08:25:04;100005.41;;;8.90;31.75
15880;BME280;61999;51.514;14.614;2023-04-28T08:27:32;99999.88;;;9.06;31.12
15880;BME280;61999;51.514;14.614;2023-04-28T08:30:05;99997.44;;;9.27;32.10
15880;BME280;61999;51.514;14.614;2023-04-28T08:32:34;100002.16;;;9.10;31.70
15880;BME280;61999;51.514;14.614;2023-04-28T08:35:03;99997.84;;;9.09;30.73
15880;BME280;61999;51.514;14.614;2023-04-28T08:37:31;99991.84;;;9.43;31.32
15880;BME280;61999;51.514;14.614;2023-04-28T08:39:59;99993.25;;;9.71;31.20
15880;BME280;61999;51.514;14.614;2023-04-28T08:42:30;99990.38;;;9.74;30.36
15880;BME280;61999;51.514;14.614;2023-04-28T08:44:58;100002.06;;;9.58;30.99
15880;BME280;61999;51.514;14.614;2023-04-28T08:47:34;99997.56;;;9.72;31.03
15880;BME280;61999;51.514;14.614;2023-04-28T08:50:06;99996.00;;;9.80;30.36
15880;BME280;61999;51.514;14.614;2023-04-28T08:52:34;99986.78;;;10.09;31.04
15880;BME280;61999;51.514;14.614;2023-04-28T08:55:06;99981.97;;;10.36;30.84
15880;BME280;61999;51.514;14.614;2023-04-28T08:57:38;99981.19;;;10.68;30.50
15880;BME280;61999;51.514;14.614;2023-04-28T09:00:08;99977.69;;;10.79;28.77
15880;BME280;61999;51.514;14.614;2023-04-28T09:02:38;99971.38;;;10.70;29.63
15880;BME280;61999;51.514;14.614;2023-04-28T09:05:09;99968.91;;;10.89;30.02
15880;BME280;61999;51.514;14.614;2023-04-28T09:07:37;99963.09;;;11.49;30.01
15880;BME280;61999;51.514;14.614;2023-04-28T09:10:21;99965.41;;;11.21;27.78
15880;BME280;61999;51.514;14.614;2023-04-28T09:12:52;99952.81;;;11.34;29.15
15880;BME280;61999;51.514;14.614;2023-04-28T09:15:29;99953.69;;;11.87;27.70
15880;BME280;61999;51.514;14.614;2023-04-28T09:18:01;99953.44;;;11.90;28.21
15880;BME280;61999;51.514;14.614;2023-04-28T09:20:31;99950.06;;;11.36;27.61
15880;BME280;61999;51.514;14.614;2023-04-28T09:23:14;99954.56;;;11.97;27.56
15880;BME280;61999;51.514;14.614;2023-04-28T09:25:58;99953.97;;;11.84;27.58
15880;BME280;61999;51.514;14.614;2023-04-28T09:28:26;99942.41;;;12.15;28.47
15880;BME280;61999;51.514;14.614;2023-04-28T09:30:54;99940.66;;;12.55;27.53
15880;BME280;61999;51.514;14.614;2023-04-28T09:33:24;99932.22;;;13.09;27.36
15880;BME280;61999;51.514;14.614;2023-04-28T09:35:53;99930.16;;;13.50;27.17
15880;BME280;61999;51.514;14.614;2023-04-28T09:38:22;99935.09;;;13.82;26.24
15880;BME280;61999;51.514;14.614;2023-04-28T09:40:56;99933.56;;;13.80;25.79
15880;BME280;61999;51.514;14.614;2023-04-28T09:43:30;99927.19;;;14.00;25.33
15880;BME280;61999;51.514;14.614;2023-04-28T09:46:00;99931.63;;;14.10;25.58
15880;BME280;61999;51.514;14.614;2023-04-28T09:48:32;99922.72;;;14.46;26.06
15880;BME280;61999;51.514;14.614;2023-04-28T09:51:03;99921.59;;;14.49;25.52
15880;BME280;61999;51.514;14.614;2023-04-28T09:53:32;99925.16;;;14.93;25.14
15880;BME280;61999;51.514;14.614;2023-04-28T09:56:03;99915.47;;;14.84;23.99
15880;BME280;61999;51.514;14.614;2023-04-28T09:58:34;99911.25;;;15.00;24.75
15880;BME280;61999;51.514;14.614;2023-04-28T10:01:09;99908.31;;;15.55;24.53
15880;BME280;61999;51.514;14.614;2023-04-28T10:03:41;99901.72;;;14.89;24.97
15880;BME280;61999;51.514;14.614;2023-04-28T10:06:10;99899.03;;;15.59;24.05
15880;BME280;61999;51.514;14.614;2023-04-28T10:08:39;99901.22;;;15.63;23.40
15880;BME280;61999;51.514;14.614;2023-04-28T10:11:08;99890.88;;;15.87;23.61
15880;BME280;61999;51.514;14.614;2023-04-28T10:13:36;99887.41;;;15.94;23.38
15880;BME280;61999;51.514;14.614;2023-04-28T10:16:06;99887.22;;;14.83;24.22
15880;BME280;61999;51.514;14.614;2023-04-28T10:18:36;99892.91;;;14.88;23.91
15880;BME280;61999;51.514;14.614;2023-04-28T10:21:07;99880.56;;;15.83;24.18
15880;BME280;61999;51.514;14.614;2023-04-28T10:24:06;99878.06;;;16.57;22.84
15880;BME280;61999;51.514;14.614;2023-04-28T10:27:06;99877.03;;;16.34;22.97
15880;BME280;61999;51.514;14.614;2023-04-28T10:29:35;99874.41;;;16.91;23.65
15880;BME280;61999;51.514;14.614;2023-04-28T10:32:21;99874.19;;;16.35;22.10
15880;BME280;61999;51.514;14.614;2023-04-28T10:34:52;99858.03;;;15.27;21.89
15880;BME280;61999;51.514;14.614;2023-04-28T10:38:04;99855.88;;;14.25;23.62
15880;BME280;61999;51.514;14.614;2023-04-28T10:40:34;99844.06;;;15.59;24.02
15880;BME280;61999;51.514;14.614;2023-04-28T10:43:03;99842.44;;;16.91;22.48
15880;BME280;61999;51.514;14.614;2023-04-28T10:46:01;99847.47;;;15.44;23.21
15880;BME280;61999;51.514;14.614;2023-04-28T10:48:54;99838.47;;;16.79;21.86
15880;BME280;61999;51.514;14.614;2023-04-28T10:51:30;99830.16;;;16.65;21.40
15880;BME280;61999;51.514;14.614;2023-04-28T10:54:18;99829.66;;;14.04;24.10
15880;BME280;61999;51.514;14.614;2023-04-28T10:57:18;99828.78;;;15.19;22.19
15880;BME280;61999;51.514;14.614;2023-04-28T10:59:48;99823.94;;;17.06;21.47
15880;BME280;61999;51.514;14.614;2023-04-28T11:02:36;99819.53;;;18.08;20.33
15880;BME280;61999;51.514;14.614;2023-04-28T11:05:26;99815.22;;;19.21;19.77
15880;BME280;61999;51.514;14.614;2023-04-28T11:08:31;99825.34;;;18.58;20.29
15880;BME280;61999;51.514;14.614;2023-04-28T11:11:15;99820.47;;;16.97;21.11
15880;BME280;61999;51.514;14.614;2023-04-28T11:13:43;99818.19;;;16.61;22.04
15880;BME280;61999;51.514;14.614;2023-04-28T11:16:16;99833.78;;;16.40;21.19
15880;BME280;61999;51.514;14.614;2023-04-28T11:19:01;99824.13;;;15.55;22.26
15880;BME280;61999;51.514;14.614;2023-04-28T11:21:31;99823.97;;;16.08;21.73
15880;BME280;61999;51.514;14.614;2023-04-28T11:24:07;99826.34;;;15.34;22.23
15880;BME280;61999;51.514;14.614;2023-04-28T11:26:37;99822.16;;;11.80;27.66
15880;BME280;61999;51.514;14.614;2023-04-28T11:29:06;99828.44;;;11.99;26.95
15880;BME280;61999;51.514;14.614;2023-04-28T11:31:36;99821.22;;;12.01;27.49
15880;BME280;61999;51.514;14.614;2023-04-28T11:34:10;99827.66;;;11.58;27.73
15880;BME280;61999;51.514;14.614;2023-04-28T11:36:41;99838.50;;;10.29;29.09
15880;BME280;61999;51.514;14.614;2023-04-28T11:39:12;99825.44;;;11.02;28.58
15880;BME280;61999;51.514;14.614;2023-04-28T11:41:44;99821.25;;;10.25;29.89
15880;BME280;61999;51.514;14.614;2023-04-28T11:44:13;99816.81;;;11.61;27.92
15880;BME280;61999;51.514;14.614;2023-04-28T11:46:46;99814.34;;;11.79;27.20
15880;BME280;61999;51.514;14.614;2023-04-28T11:49:17;99821.06;;;11.93;27.21
15880;BME280;61999;51.514;14.614;2023-04-28T11:51:45;99822.41;;;11.77;27.86
15880;BME280;61999;51.514;14.614;2023-04-28T11:54:21;99815.00;;;12.41;26.81
15880;BME280;61999;51.514;14.614;2023-04-28T11:56:52;99824.97;;;12.08;26.54
15880;BME280;61999;51.514;14.614;2023-04-28T11:59:24;99821.25;;;10.25;29.15
15880;BME280;61999;51.514;14.614;2023-04-28T12:01:54;99820.72;;;10.10;29.42
15880;BME280;61999;51.514;14.614;2023-04-28T12:04:28;99821.63;;;8.98;30.81
15880;BME280;61999;51.514;14.614;2023-04-28T12:07:03;99823.81;;;9.49;30.27
15880;BME280;61999;51.514;14.614;2023-04-28T12:09:33;99828.50;;;10.12;30.04
15880;BME280;61999;51.514;14.614;2023-04-28T12:12:04;99835.97;;;9.95;30.01
15880;BME280;61999;51.514;14.614;2023-04-28T12:14:54;99828.81;;;9.30;30.97
15880;BME280;61999;51.514;14.614;2023-04-28T12:17:23;99837.75;;;8.58;31.46
15880;BME280;61999;51.514;14.614;2023-04-28T12:19:52;99834.06;;;8.37;31.89
15880;BME280;61999;51.514;14.614;2023-04-28T12:22:21;99825.59;;;8.33;32.17
15880;BME280;61999;51.514;14.614;2023-04-28T12:25:05;99829.78;;;9.18;31.32
15880;BME280;61999;51.514;14.614;2023-04-28T12:27:36;99836.16;;;8.20;32.05
15880;BME280;61999;51.514;14.614;2023-04-28T12:30:24;99835.53;;;7.93;32.73
15880;BME280;61999;51.514;14.614;2023-04-28T12:32:52;99837.34;;;8.16;32.66
15880;BME280;61999;51.514;14.614;2023-04-28T12:35:21;99833.41;;;8.46;32.59
15880;BME280;61999;51.514;14.614;2023-04-28T12:37:50;99836.78;;;8.83;32.68
15880;BME280;61999;51.514;14.614;2023-04-28T12:40:18;99843.97;;;7.72;33.29
15880;BME280;61999;51.514;14.614;2023-04-28T12:42:48;99840.66;;;7.45;33.54
15880;BME280;61999;51.514;14.614;2023-04-28T12:45:16;99844.44;;;7.41;34.40
15880;BME280;61999;51.514;14.614;2023-04-28T12:47:44;99842.44;;;7.44;34.26
15880;BME280;61999;51.514;14.614;2023-04-28T12:50:13;99840.91;;;8.39;32.82
15880;BME280;61999;51.514;14.614;2023-04-28T12:52:40;99841.03;;;8.38;32.40
15880;BME280;61999;51.514;14.614;2023-04-28T12:55:09;99836.50;;;8.40;33.36
15880;BME280;61999;51.514;14.614;2023-04-28T12:57:37;99833.38;;;8.35;33.49
15880;BME280;61999;51.514;14.614;2023-04-28T13:00:08;99833.38;;;8.11;33.90
15880;BME280;61999;51.514;14.614;2023-04-28T13:02:36;99833.50;;;8.68;33.36
15880;BME280;61999;51.514;14.614;2023-04-28T13:05:05;99840.63;;;8.07;34.61
15880;BME280;61999;51.514;14.614;2023-04-28T13:07:35;99831.44;;;9.19;33.24